Lemoore Naval Air Station (Reeves Field) Airport Lemoore US
ICAO: KNLC
IATA: NLC
Category: Medium
Scheduled Services: No

Elevation: 232 ft
TransAlt. 18000 ft.

Airport Communications:
APP:118.15
ATIS:26.76
CLNC DEL:124.1
DEP:118.15
GND:121.65
BASE OPS:29.93
PMSV METRO:31.7
TWR:128.3

KNLC Zoom In..

If you have problems with the map follow the link
https://www.worldairports.se/pages/airport.php?
ICAO=KNLC

Runways:

(A) RW 14L length 13500 ft width 200 ft
---- / hdg 142

(B) RW 14R length 13497 ft width 200 ft
---- / hdg 142

(C) RW 32L length 13497 ft width 200 ft
---- / hdg 322

(D) RW 32R length 13500 ft width 200 ft
---- / hdg 322

Location; KNLC
Day. 18 / Time. 01.56 Zulu
* Altimeter: 30.01
* Temperature: 08° c. 46.4°f.
* Wind from: 040° Speed 04 kn.
Dewpoint: 04° c.
Visibility: 10 Statute Miles.
Clouds: Broken 4900 ft.
Clouds: Overcast 6000 ft.

KNLC 180156Z AUTO 04004KT 10SM BKN049 OVC060 08/04 A3001 RMK AO2 SLP162 T00780039


Wind From 040°
Speed 04 kn.

 
 
jpsmedia.com for Web Design worldairports.se 2019   terms of use